Time;durP1;ratioP1;P1;durP2;ratioP2;P2;SDS_P1;SDS_P2;PMS_P1;PMS_P2;Temp;Humidity;BMP_temperature;BMP_pressure;BME280_temperature;BME280_humidity;BME280_pressure;Samples;Min_cycle;Max_cycle;Signal;HPM_P1;HPM_P2
2021/12/12 00:01:54;;;;;;;5.30;0.40;;;4.00;99.90;;;;;;5100948;27;20059;-80
2021/12/12 00:04:22;;;;;;;1.95;0.75;;;4.00;99.90;;;;;;5101066;27;20051;-80
2021/12/12 00:06:55;;;;;;;0.75;0.30;;;4.00;99.90;;;;;;5118100;27;20046;-81
2021/12/12 00:09:27;;;;;;;3.92;0.55;;;4.00;99.90;;;;;;5100688;27;20137;-81
2021/12/12 00:11:53;;;;;;;0.30;0.30;;;4.00;99.90;;;;;;5101514;27;20047;-81
2021/12/12 00:14:21;;;;;;;0.25;0.25;;;4.00;99.90;;;;;;5118118;27;20039;-81
2021/12/12 00:16:47;;;;;;;1.58;0.85;;;4.00;99.90;;;;;;5100515;27;20158;-82
2021/12/12 00:19:13;;;;;;;3.80;1.63;;;4.00;99.90;;;;;;5117419;27;20048;-81
2021/12/12 00:21:43;;;;;;;0.77;0.40;;;4.00;99.90;;;;;;5117378;27;20095;-81
2021/12/12 00:24:12;;;;;;;5.00;1.10;;;4.00;99.90;;;;;;5100968;27;20058;-81
2021/12/12 00:26:38;;;;;;;3.65;0.75;;;4.00;99.90;;;;;;5117542;27;20449;-81
2021/12/12 00:29:05;;;;;;;1.48;0.70;;;4.00;99.90;;;;;;5100637;27;20099;-81
2021/12/12 00:31:31;;;;;;;1.48;0.73;;;4.10;99.90;;;;;;5099872;27;20066;-81
2021/12/12 00:33:59;;;;;;;0.98;0.28;;;4.10;99.90;;;;;;5099390;27;20154;-81
2021/12/12 00:36:26;;;;;;;1.17;1.08;;;4.10;99.90;;;;;;5100661;27;20054;-81
2021/12/12 00:39:00;;;;;;;1.08;1.05;;;4.20;99.90;;;;;;5100123;27;20055;-81
2021/12/12 00:41:35;;;;;;;0.40;0.20;;;4.10;99.90;;;;;;5100597;27;20138;-81
2021/12/12 00:44:05;;;;;;;0.50;0.35;;;4.10;99.90;;;;;;5099538;27;20051;-81
2021/12/12 00:46:31;;;;;;;1.08;1.08;;;4.10;99.90;;;;;;5099346;27;20035;-81
2021/12/12 00:48:57;;;;;;;0.77;0.77;;;4.10;99.90;;;;;;5100418;27;20046;-81
2021/12/12 00:51:29;;;;;;;2.22;0.82;;;4.10;99.90;;;;;;5100211;27;20054;-81
2021/12/12 00:53:56;;;;;;;1.55;1.00;;;4.10;99.90;;;;;;5100376;27;20134;-81
2021/12/12 00:56:22;;;;;;;5.30;1.38;;;4.10;99.90;;;;;;5100161;27;20379;-81
2021/12/12 00:58:48;;;;;;;2.70;2.50;;;4.20;99.90;;;;;;5099547;27;20055;-81
2021/12/12 01:01:35;;;;;;;0.75;0.75;;;4.10;99.90;;;;;;5117195;27;20058;-80
2021/12/12 01:04:13;;;;;;;3.08;1.42;;;4.10;99.90;;;;;;5099886;27;20061;-81
2021/12/12 01:06:39;;;;;;;0.45;0.45;;;4.20;99.90;;;;;;5100191;27;20047;-81
2021/12/12 01:09:09;;;;;;;6.25;2.28;;;4.10;99.90;;;;;;5099955;27;20047;-81
2021/12/12 01:11:40;;;;;;;0.63;0.63;;;4.10;99.90;;;;;;5100901;28;20046;-81
2021/12/12 01:14:10;;;;;;;1.92;0.17;;;4.10;99.90;;;;;;5117709;27;20047;-81
2021/12/12 01:16:41;;;;;;;0.82;0.52;;;4.10;99.90;;;;;;5100406;27;20054;-82
2021/12/12 01:19:12;;;;;;;0.32;0.32;;;4.20;99.90;;;;;;5100182;28;20059;-81
2021/12/12 01:21:44;;;;;;;0.28;0.28;;;4.20;99.90;;;;;;5099987;28;20047;-80
2021/12/12 01:24:19;;;;;;;0.75;0.75;;;4.20;99.90;;;;;;5100125;27;20051;-80
2021/12/12 01:26:46;;;;;;;0.10;0.10;;;4.20;99.90;;;;;;5100087;28;20084;-81
2021/12/12 01:29:12;;;;;;;0.60;0.52;;;4.20;99.90;;;;;;5116746;28;20043;-81
2021/12/12 01:31:46;;;;;;;0.30;0.30;;;4.30;99.90;;;;;;5116426;28;20043;-81
2021/12/12 01:34:15;;;;;;;0.08;0.00;;;4.20;99.90;;;;;;5117093;28;20447;-81
2021/12/12 01:36:53;;;;;;;1.33;1.23;;;4.40;99.90;;;;;;5099210;28;20047;-81
2021/12/12 01:39:22;;;;;;;0.15;0.08;;;4.30;99.90;;;;;;5116622;28;20219;-80
2021/12/12 01:41:57;;;;;;;0.32;0.25;;;4.30;99.90;;;;;;5099804;28;20458;-81
2021/12/12 01:44:28;;;;;;;0.73;0.55;;;4.30;99.90;;;;;;5099466;28;20395;-81
2021/12/12 01:47:18;;;;;;;1.13;1.00;;;4.30;99.90;;;;;;5099820;28;20141;-80
2021/12/12 01:49:47;;;;;;;0.73;0.63;;;4.40;99.90;;;;;;5099546;28;20035;-80
2021/12/12 01:52:17;;;;;;;0.15;0.15;;;4.30;99.90;;;;;;5116527;28;20126;-80
2021/12/12 01:54:49;;;;;;;0.10;0.10;;;4.30;99.90;;;;;;5099610;28;20039;-80
2021/12/12 01:57:25;;;;;;;0.38;0.38;;;4.40;99.90;;;;;;5119898;27;20127;-80
2021/12/12 01:59:53;;;;;;;0.52;0.52;;;4.30;99.90;;;;;;5103860;27;20429;-80
2021/12/12 02:02:27;;;;;;;1.48;0.50;;;4.40;99.90;;;;;;5103487;27;20127;-80
2021/12/12 02:04:58;;;;;;;1.05;1.02;;;4.40;99.90;;;;;;5120570;27;20039;-81
2021/12/12 02:07:27;;;;;;;1.50;0.57;;;4.40;99.90;;;;;;5103157;27;20478;-80
2021/12/12 02:09:54;;;;;;;2.85;0.57;;;4.40;99.90;;;;;;5103779;27;20055;-81
2021/12/12 02:12:23;;;;;;;0.30;0.30;;;4.40;99.90;;;;;;5120401;27;20055;-81
2021/12/12 02:14:49;;;;;;;0.28;0.20;;;4.40;99.90;;;;;;5120692;27;20088;-80
2021/12/12 02:17:29;;;;;;;1.20;0.47;;;4.40;99.90;;;;;;5120596;27;20408;-81
2021/12/12 02:20:06;;;;;;;2.92;1.17;;;4.40;99.90;;;;;;5120529;27;20043;-81
2021/12/12 02:36:00;;;;;;;1.15;0.65;;;4.40;99.90;;;;;;5120178;27;20120;-82
2021/12/12 02:38:30;;;;;;;0.08;0.08;;;4.50;99.90;;;;;;5103163;27;20047;-81
2021/12/12 02:41:00;;;;;;;0.20;0.20;;;4.50;99.90;;;;;;5120067;27;20134;-81
2021/12/12 02:43:30;;;;;;;0.75;0.30;;;4.50;99.90;;;;;;5102484;27;20059;-81
2021/12/12 02:45:57;;;;;;;0.30;0.30;;;4.50;99.90;;;;;;5102180;27;20133;-81
2021/12/12 02:48:32;;;;;;;0.40;0.40;;;4.50;99.90;;;;;;5102743;27;20080;-81
2021/12/12 02:51:03;;;;;;;0.35;0.35;;;4.50;99.90;;;;;;5119985;27;20050;-82
2021/12/12 02:53:35;;;;;;;0.55;0.52;;;4.50;99.90;;;;;;5103115;27;20492;-81
2021/12/12 02:56:05;;;;;;;1.75;0.75;;;4.40;99.90;;;;;;5102023;27;20498;-81
2021/12/12 02:58:32;;;;;;;0.17;0.17;;;4.50;99.90;;;;;;5103113;27;20035;-82
2021/12/12 03:01:14;;;;;;;0.45;0.22;;;4.50;99.90;;;;;;5119964;27;20069;-81
2021/12/12 03:03:42;;;;;;;0.73;0.63;;;4.40;99.90;;;;;;5103177;27;20142;-81
2021/12/12 03:06:12;;;;;;;0.50;0.35;;;4.50;99.90;;;;;;5101860;27;20070;-81
2021/12/12 03:08:42;;;;;;;2.65;0.68;;;4.50;99.90;;;;;;5101651;27;20043;-82
2021/12/12 03:11:09;;;;;;;0.70;0.70;;;4.50;99.90;;;;;;5102074;27;20047;-81
2021/12/12 03:13:35;;;;;;;0.75;0.35;;;4.50;99.90;;;;;;5102117;27;20059;-82
2021/12/12 03:16:02;;;;;;;0.28;0.17;;;4.50;99.90;;;;;;5102288;27;20047;-82
2021/12/12 03:18:38;;;;;;;1.17;0.75;;;4.50;99.90;;;;;;5101816;27;20089;-82
2021/12/12 03:21:14;;;;;;;0.00;0.00;;;4.50;99.90;;;;;;5102803;27;20051;-82
2021/12/12 03:23:46;;;;;;;1.70;1.27;;;4.50;99.90;;;;;;5102671;27;20047;-82
2021/12/12 03:26:14;;;;;;;0.70;0.28;;;4.50;99.90;;;;;;5102087;27;20390;-82
2021/12/12 03:28:43;;;;;;;1.77;1.13;;;4.50;99.90;;;;;;5119090;27;20043;-82
2021/12/12 03:31:17;;;;;;;0.35;0.35;;;4.50;99.90;;;;;;5119123;27;20043;-82
2021/12/12 03:33:43;;;;;;;1.58;0.75;;;4.50;99.90;;;;;;5118722;27;20044;-82
2021/12/12 03:36:11;;;;;;;0.00;0.00;;;4.50;99.90;;;;;;5101507;27;20062;-82
2021/12/12 03:38:40;;;;;;;0.32;0.32;;;4.50;99.90;;;;;;5101956;27;20047;-82
2021/12/12 03:41:09;;;;;;;0.40;0.40;;;4.60;99.90;;;;;;5118445;27;20035;-82
2021/12/12 03:43:36;;;;;;;0.00;0.00;;;4.60;99.90;;;;;;5100845;27;20062;-82
2021/12/12 03:46:06;;;;;;;0.88;0.68;;;4.50;99.90;;;;;;5101146;27;20039;-82
2021/12/12 03:48:33;;;;;;;0.05;0.05;;;4.50;99.90;;;;;;5119010;27;20051;-82
2021/12/12 03:51:04;;;;;;;0.00;0.00;;;4.60;99.90;;;;;;5118157;27;20047;-83
2021/12/12 03:53:31;;;;;;;0.20;0.20;;;4.60;99.90;;;;;;5101508;27;20108;-83
2021/12/12 03:55:59;;;;;;;0.10;0.10;;;4.60;99.90;;;;;;5118779;27;20047;-82
2021/12/12 03:58:26;;;;;;;0.25;0.25;;;4.60;99.90;;;;;;5101311;27;20043;-83
2021/12/12 04:00:57;;;;;;;0.73;0.73;;;4.60;99.90;;;;;;5101412;27;20074;-82
2021/12/12 04:03:23;;;;;;;0.57;0.40;;;4.60;99.90;;;;;;5118231;27;20039;-83
2021/12/12 04:05:58;;;;;;;1.52;0.85;;;4.60;99.90;;;;;;5100482;27;20091;-83
2021/12/12 04:08:28;;;;;;;2.45;0.47;;;4.60;99.90;;;;;;5100749;27;20051;-82
2021/12/12 04:10:54;;;;;;;1.17;0.80;;;4.60;99.90;;;;;;5117873;27;20482;-82
2021/12/12 04:13:21;;;;;;;0.00;0.00;;;4.60;99.90;;;;;;5134876;27;20123;-82
2021/12/12 04:15:51;;;;;;;1.75;0.22;;;4.70;99.90;;;;;;5100694;27;20039;-82
2021/12/12 04:18:26;;;;;;;0.20;0.20;;;4.70;99.90;;;;;;5117279;27;20591;-82
2021/12/12 04:20:52;;;;;;;0.45;0.35;;;4.70;99.90;;;;;;5100661;27;20057;-82
2021/12/12 04:23:20;;;;;;;0.47;0.40;;;4.70;99.90;;;;;;5117937;27;20043;-83
2021/12/12 04:25:46;;;;;;;0.52;0.20;;;4.70;99.90;;;;;;5100724;27;20074;-83
2021/12/12 04:28:12;;;;;;;0.28;0.28;;;4.70;99.90;;;;;;5151074;27;20127;-82
2021/12/12 04:30:38;;;;;;;0.10;0.10;;;4.70;99.90;;;;;;5117482;27;20047;-82
2021/12/12 04:33:04;;;;;;;0.68;0.03;;;4.70;99.90;;;;;;5100062;27;20116;-83
2021/12/12 04:35:30;;;;;;;3.35;0.40;;;4.70;99.90;;;;;;5116915;27;20088;-83
2021/12/12 04:37:59;;;;;;;0.13;0.03;;;4.70;99.90;;;;;;5134017;27;20055;-82
2021/12/12 04:40:30;;;;;;;0.10;0.10;;;4.70;99.90;;;;;;5100160;27;20134;-83
2021/12/12 04:42:57;;;;;;;0.13;0.10;;;4.70;99.90;;;;;;5099993;27;20055;-83
2021/12/12 04:46:21;;;;;;;0.60;0.28;;;4.70;99.90;;;;;;5099209;27;20051;-83
2021/12/12 04:51:41;;;;;;;0.52;0.45;;;4.70;99.90;;;;;;5117131;27;20059;-83
2021/12/12 04:54:33;;;;;;;0.00;0.00;;;4.70;99.90;;;;;;5117038;27;20126;-82
2021/12/12 04:57:12;;;;;;;0.35;0.35;;;4.80;99.90;;;;;;5100005;27;20055;-83
2021/12/12 04:59:48;;;;;;;0.63;0.10;;;4.80;99.90;;;;;;5101001;27;20035;-82
2021/12/12 05:02:29;;;;;;;0.70;0.55;;;4.80;99.90;;;;;;5099396;27;20401;-83
2021/12/12 05:05:08;;;;;;;0.20;0.20;;;4.80;99.90;;;;;;5117282;27;20390;-83
2021/12/12 05:07:45;;;;;;;0.15;0.15;;;4.80;99.90;;;;;;5116964;27;20050;-82
2021/12/12 05:10:18;;;;;;;0.10;0.10;;;4.80;99.90;;;;;;5100266;27;20050;-82
2021/12/12 05:12:47;;;;;;;0.70;0.00;;;4.80;99.90;;;;;;5100381;27;20055;-82
2021/12/12 05:15:38;;;;;;;0.10;0.10;;;4.80;99.90;;;;;;5116795;27;20078;-82
2021/12/12 05:18:06;;;;;;;0.47;0.08;;;4.80;99.90;;;;;;5100002;28;20066;-82
2021/12/12 05:20:36;;;;;;;0.55;0.13;;;4.80;99.90;;;;;;5099904;27;20142;-82
2021/12/12 05:23:06;;;;;;;0.00;0.00;;;4.90;99.90;;;;;;5099740;28;20394;-83
2021/12/12 05:25:55;;;;;;;0.00;0.00;;;4.90;99.90;;;;;;5117038;27;20126;-82
2021/12/12 05:28:26;;;;;;;0.10;0.10;;;4.90;99.90;;;;;;5116558;28;20546;-82
2021/12/12 05:30:52;;;;;;;0.00;0.00;;;4.90;99.90;;;;;;5117932;27;20042;-82
2021/12/12 05:33:19;;;;;;;1.17;0.03;;;4.90;99.90;;;;;;5140875;27;20116;-82
2021/12/12 05:35:46;;;;;;;0.20;0.20;;;4.90;99.90;;;;;;5123284;27;20138;-82
2021/12/12 05:38:13;;;;;;;1.45;0.20;;;4.90;99.90;;;;;;5106597;27;20104;-82
2021/12/12 05:40:41;;;;;;;0.20;0.20;;;5.10;99.90;;;;;;5123305;27;20126;-82
2021/12/12 05:43:07;;;;;;;0.00;0.00;;;4.90;99.90;;;;;;5106486;27;20053;-82
2021/12/12 05:45:35;;;;;;;0.00;0.00;;;5.00;99.90;;;;;;5106269;27;20043;-82
2021/12/12 05:48:04;;;;;;;0.00;0.00;;;5.00;99.90;;;;;;5106121;27;20043;-81
2021/12/12 05:50:30;;;;;;;0.25;0.25;;;5.00;99.90;;;;;;5106005;27;20146;-81
2021/12/12 05:52:56;;;;;;;0.40;0.40;;;5.00;99.90;;;;;;5140410;27;20078;-81
2021/12/12 05:55:26;;;;;;;0.15;0.15;;;5.00;99.90;;;;;;5123249;27;20097;-82
2021/12/12 05:57:56;;;;;;;0.00;0.00;;;5.00;99.90;;;;;;5105287;27;20051;-82
2021/12/12 06:00:34;;;;;;;0.00;0.00;;;5.10;99.90;;;;;;5106294;27;20043;-81
2021/12/12 06:03:00;;;;;;;0.00;0.00;;;5.00;99.90;;;;;;5106387;27;20104;-82
2021/12/12 06:05:27;;;;;;;0.00;0.00;;;5.00;99.90;;;;;;5123512;27;20043;-82
2021/12/12 06:07:57;;;;;;;0.00;0.00;;;5.10;99.90;;;;;;5123824;27;20047;-81
2021/12/12 06:10:24;;;;;;;0.00;0.00;;;5.10;99.90;;;;;;5123736;27;20062;-82
2021/12/12 06:12:51;;;;;;;2.38;0.40;;;5.10;99.90;;;;;;5105771;27;20051;-83
2021/12/12 06:15:20;;;;;;;0.00;0.00;;;5.10;99.90;;;;;;5105959;27;20529;-83
2021/12/12 06:17:47;;;;;;;1.58;0.40;;;5.10;99.90;;;;;;5123062;27;20074;-83
2021/12/12 06:20:15;;;;;;;0.10;0.10;;;5.10;99.90;;;;;;5106633;27;20121;-82
2021/12/12 06:22:41;;;;;;;0.00;0.00;;;5.10;99.90;;;;;;5106462;27;20133;-82
2021/12/12 06:25:09;;;;;;;0.00;0.00;;;5.10;99.90;;;;;;5106315;27;20126;-82
2021/12/12 06:27:35;;;;;;;1.20;0.73;;;5.10;99.90;;;;;;5123011;27;20474;-82
2021/12/12 06:30:02;;;;;;;1.95;0.22;;;5.10;99.90;;;;;;5139500;27;20227;-82
2021/12/12 06:32:27;;;;;;;0.00;0.00;;;5.10;99.90;;;;;;5106275;27;20051;-82
2021/12/12 06:34:57;;;;;;;0.10;0.10;;;5.20;99.90;;;;;;5122980;27;20367;-82
2021/12/12 06:37:23;;;;;;;0.00;0.00;;;5.20;99.90;;;;;;5105634;27;20050;-82
2021/12/12 06:39:50;;;;;;;0.25;0.20;;;5.20;99.90;;;;;;5122979;27;20516;-83
2021/12/12 06:42:17;;;;;;;0.08;0.08;;;5.20;99.90;;;;;;5122535;27;20363;-84
2021/12/12 06:44:43;;;;;;;0.88;0.05;;;5.20;99.90;;;;;;5102406;27;20512;-83
2021/12/12 06:47:12;;;;;;;0.00;0.00;;;5.20;99.90;;;;;;5119815;27;20088;-83
2021/12/12 06:49:39;;;;;;;0.00;0.00;;;5.20;99.90;;;;;;5119918;27;20142;-82
2021/12/12 06:52:07;;;;;;;0.13;0.13;;;5.20;99.90;;;;;;5119715;27;20079;-83
2021/12/12 06:54:33;;;;;;;0.10;0.10;;;5.20;99.90;;;;;;5119479;27;20043;-83
2021/12/12 06:57:03;;;;;;;0.00;0.00;;;5.20;99.90;;;;;;5102256;27;20043;-83
2021/12/12 06:59:32;;;;;;;0.00;0.00;;;5.20;99.90;;;;;;5102186;27;20050;-83
2021/12/12 07:01:58;;;;;;;0.00;0.00;;;5.30;99.90;;;;;;5119659;27;20042;-83
2021/12/12 07:04:25;;;;;;;0.00;0.00;;;5.30;99.90;;;;;;5119118;27;20043;-82
2021/12/12 07:06:54;;;;;;;0.00;0.00;;;5.30;99.90;;;;;;5102496;27;20065;-83
2021/12/12 07:09:21;;;;;;;0.00;0.00;;;5.30;99.90;;;;;;5102280;27;20607;-82
2021/12/12 07:11:47;;;;;;;0.00;0.00;;;5.30;99.90;;;;;;5118666;27;20475;-82
2021/12/12 07:14:16;;;;;;;0.00;0.00;;;5.30;99.90;;;;;;5118766;27;20047;-83
2021/12/12 07:16:43;;;;;;;0.00;0.00;;;5.40;99.90;;;;;;5119310;27;20134;-82
2021/12/12 07:19:09;;;;;;;0.00;0.00;;;5.30;99.90;;;;;;5101955;27;20449;-82
2021/12/12 07:21:36;;;;;;;0.20;0.00;;;5.40;99.90;;;;;;5118896;27;20100;-83
2021/12/12 07:24:04;;;;;;;0.00;0.00;;;5.40;99.90;;;;;;5118507;27;20044;-82
2021/12/12 07:26:30;;;;;;;0.22;0.22;;;5.40;99.90;;;;;;5101572;27;20080;-82
2021/12/12 07:28:58;;;;;;;0.00;0.00;;;5.40;99.90;;;;;;5101567;27;20054;-82
2021/12/12 07:31:34;;;;;;;0.00;0.00;;;5.40;99.90;;;;;;5101796;27;20047;-81
2021/12/12 07:34:05;;;;;;;0.30;0.08;;;5.50;99.90;;;;;;5101718;27;20047;-82
2021/12/12 07:36:33;;;;;;;0.38;0.17;;;5.50;99.90;;;;;;5118047;27;20046;-82
2021/12/12 07:39:04;;;;;;;0.08;0.08;;;5.50;99.90;;;;;;5118330;27;20107;-83
2021/12/12 07:41:31;;;;;;;0.00;0.00;;;5.50;99.90;;;;;;5101647;27;20043;-82
2021/12/12 07:43:58;;;;;;;0.00;0.00;;;5.50;99.90;;;;;;5119223;27;20477;-83
2021/12/12 07:46:25;;;;;;;0.00;0.00;;;5.60;99.90;;;;;;5101694;27;20046;-83
2021/12/12 07:48:52;;;;;;;1.25;0.20;;;5.50;99.90;;;;;;5101501;27;20506;-83
2021/12/12 07:51:20;;;;;;;0.52;0.20;;;5.50;99.90;;;;;;5119269;27;20055;-84
2021/12/12 07:53:52;;;;;;;0.00;0.00;;;5.50;99.90;;;;;;5118932;27;20473;-84
2021/12/12 07:56:19;;;;;;;0.10;0.08;;;5.60;99.90;;;;;;5102414;27;20031;-84
2021/12/12 07:58:46;;;;;;;0.00;0.00;;;5.60;99.90;;;;;;5101328;27;20047;-84
2021/12/12 08:01:13;;;;;;;0.00;0.00;;;5.60;99.90;;;;;;5119193;27;20118;-84
2021/12/12 08:03:40;;;;;;;0.00;0.00;;;5.60;99.90;;;;;;5135678;27;20072;-85
2021/12/12 08:06:08;;;;;;;0.00;0.00;;;5.60;99.90;;;;;;5117981;27;20137;-85
2021/12/12 08:08:35;;;;;;;0.00;0.00;;;5.60;99.90;;;;;;5101296;27;20108;-84
2021/12/12 08:11:03;;;;;;;0.30;0.30;;;5.60;99.90;;;;;;5118875;27;20051;-84
2021/12/12 08:13:31;;;;;;;0.05;0.00;;;5.70;99.90;;;;;;5117611;27;20031;-84
2021/12/12 08:15:58;;;;;;;0.77;0.52;;;5.80;99.90;;;;;;5100620;27;20493;-84
2021/12/12 08:18:24;;;;;;;0.30;0.30;;;6.00;99.90;;;;;;5100864;27;20142;-83
2021/12/12 08:20:51;;;;;;;0.00;0.00;;;5.70;99.90;;;;;;5101355;27;20051;-83
2021/12/12 08:23:18;;;;;;;0.00;0.00;;;5.80;99.90;;;;;;5118093;27;20126;-83
2021/12/12 08:25:46;;;;;;;0.00;0.00;;;7.20;99.90;;;;;;5117680;27;20035;-83
2021/12/12 08:28:13;;;;;;;0.00;0.00;;;5.70;99.90;;;;;;5100658;27;20402;-83
2021/12/12 08:30:40;;;;;;;0.10;0.10;;;5.90;99.90;;;;;;5117588;27;20051;-86
2021/12/12 08:33:08;;;;;;;0.13;0.00;;;5.80;99.90;;;;;;5100587;27;20406;-83
2021/12/12 08:35:37;;;;;;;0.70;0.03;;;6.40;99.90;;;;;;5100169;27;20074;-84
2021/12/12 08:38:05;;;;;;;1.38;0.00;;;6.00;99.90;;;;;;5117690;27;20506;-85
2021/12/12 08:40:35;;;;;;;1.95;0.20;;;5.90;99.90;;;;;;5116972;27;20489;-87
2021/12/12 08:43:02;;;;;;;0.55;0.00;;;5.70;99.90;;;;;;5099971;27;20070;-87
2021/12/12 08:45:32;;;;;;;0.00;0.00;;;6.20;99.90;;;;;;5100675;27;20047;-87
2021/12/12 08:48:00;;;;;;;0.55;0.05;;;6.00;99.90;;;;;;5117571;27;20042;-87
2021/12/12 08:50:31;;;;;;;0.22;0.20;;;6.00;99.90;;;;;;5100997;27;20043;-87
2021/12/12 08:53:01;;;;;;;0.13;0.13;;;6.10;99.90;;;;;;5116793;27;20543;-88
2021/12/12 08:55:34;;;;;;;0.00;0.00;;;6.50;99.90;;;;;;5099276;27;20055;-88
2021/12/12 08:58:14;;;;;;;0.57;0.10;;;6.10;99.90;;;;;;5084250;27;20454;-87
2021/12/12 09:00:59;;;;;;;0.00;0.00;;;6.30;99.90;;;;;;5100115;27;20510;-88
2021/12/12 09:03:44;;;;;;;0.00;0.00;;;6.20;99.90;;;;;;5099609;27;20137;-88
2021/12/12 09:06:14;;;;;;;0.80;0.47;;;6.20;99.90;;;;;;5098994;27;20561;-88
2021/12/12 09:08:40;;;;;;;0.00;0.00;;;6.30;99.90;;;;;;5111568;27;20051;-87
2021/12/12 09:11:13;;;;;;;0.00;0.00;;;6.30;99.90;;;;;;5100063;27;20066;-87
2021/12/12 09:14:11;;;;;;;0.00;0.00;;;6.30;99.90;;;;;;5099776;27;20076;-87
2021/12/12 09:16:46;;;;;;;0.10;0.10;;;6.30;99.90;;;;;;5098704;27;20045;-88
2021/12/12 09:19:27;;;;;;;0.00;0.00;;;6.30;99.90;;;;;;5098346;27;20055;-88
2021/12/12 09:22:16;;;;;;;0.00;0.00;;;6.60;99.90;;;;;;5085623;28;20034;-88
2021/12/12 09:25:06;;;;;;;0.00;0.00;;;6.40;99.90;;;;;;5098563;27;20051;-92
2021/12/12 09:27:44;;;;;;;0.00;0.00;;;6.40;99.90;;;;;;5099377;28;20047;-82
2021/12/12 09:30:17;;;;;;;0.00;0.00;;;6.50;99.90;;;;;;5116193;28;20051;-82
2021/12/12 09:33:04;;;;;;;0.00;0.00;;;6.50;99.90;;;;;;5116706;28;20039;-81
2021/12/12 09:35:39;;;;;;;0.00;0.00;;;6.50;99.90;;;;;;5116290;28;20055;-82
2021/12/12 09:38:17;;;;;;;0.00;0.00;;;6.50;99.90;;;;;;5099868;28;20048;-82
2021/12/12 09:41:04;;;;;;;0.10;0.10;;;6.50;99.90;;;;;;5116989;28;20051;-82
2021/12/12 09:43:48;;;;;;;1.27;1.17;;;6.60;99.90;;;;;;5116658;28;20051;-82
2021/12/12 09:47:01;;;;;;;0.00;0.00;;;6.60;99.90;;;;;;5099003;28;20043;-81
2021/12/12 09:53:14;;;;;;;0.03;0.03;;;6.60;99.90;;;;;;5116965;28;20057;-81
2021/12/12 09:55:46;;;;;;;0.47;0.10;;;6.60;99.90;;;;;;5018724;28;20084;-82
2021/12/12 09:58:35;;;;;;;0.45;0.45;;;6.70;99.90;;;;;;5035062;28;20045;-82
2021/12/12 10:01:06;;;;;;;0.00;0.00;;;6.70;99.90;;;;;;4976169;28;20395;-81
2021/12/12 10:04:02;;;;;;;0.00;0.00;;;6.70;99.90;;;;;;4960117;28;20081;-81
2021/12/12 10:06:46;;;;;;;0.00;0.00;;;6.80;99.90;;;;;;4975774;28;20058;-81
2021/12/12 10:09:20;;;;;;;0.10;0.10;;;6.80;99.90;;;;;;4976265;28;20050;-81
2021/12/12 10:12:05;;;;;;;0.00;0.00;;;6.80;99.90;;;;;;4975816;28;20101;-81
2021/12/12 10:14:39;;;;;;;0.00;0.00;;;6.90;99.90;;;;;;4975830;28;20038;-81
2021/12/12 10:17:36;;;;;;;0.65;0.15;;;6.90;99.90;;;;;;4968096;28;20121;-83
2021/12/12 10:20:05;;;;;;;0.00;0.00;;;6.90;99.90;;;;;;4939374;29;20066;-82
2021/12/12 10:23:09;;;;;;;0.00;0.00;;;7.00;99.90;;;;;;4923380;29;20051;-83
2021/12/12 10:25:59;;;;;;;0.10;0.05;;;7.00;99.90;;;;;;4920135;29;20051;-82
2021/12/12 10:28:31;;;;;;;0.20;0.13;;;7.00;99.90;;;;;;4903550;29;20044;-81
2021/12/12 10:31:13;;;;;;;0.43;0.43;;;7.10;99.90;;;;;;4923702;28;20118;-83
2021/12/12 10:34:05;;;;;;;0.00;0.00;;;7.10;99.90;;;;;;4991715;28;20062;-82
2021/12/12 10:36:45;;;;;;;0.10;0.10;;;7.10;99.90;;;;;;4960711;28;20109;-82
2021/12/12 10:39:31;;;;;;;0.10;0.00;;;7.20;99.90;;;;;;5012603;28;20088;-81
2021/12/12 10:42:01;;;;;;;0.00;0.00;;;7.30;99.90;;;;;;5015873;28;20058;-82
2021/12/12 10:44:36;;;;;;;0.38;0.30;;;7.20;99.90;;;;;;5024687;28;20478;-82
2021/12/12 10:47:07;;;;;;;0.20;0.20;;;7.30;99.90;;;;;;5018036;28;20075;-82
2021/12/12 10:49:43;;;;;;;0.00;0.00;;;7.30;99.90;;;;;;5018763;28;20071;-82
2021/12/12 10:52:16;;;;;;;0.20;0.20;;;7.40;99.90;;;;;;5017143;28;20461;-82
2021/12/12 10:55:08;;;;;;;0.40;0.00;;;7.40;99.90;;;;;;5033165;28;20056;-82
2021/12/12 10:57:37;;;;;;;0.00;0.00;;;7.40;99.90;;;;;;5034293;28;20048;-81
2021/12/12 11:00:08;;;;;;;0.00;0.00;;;7.40;99.90;;;;;;5034293;28;20400;-81
2021/12/12 11:03:00;;;;;;;0.00;0.00;;;7.50;99.90;;;;;;5095705;28;20130;-81
2021/12/12 11:05:48;;;;;;;0.00;0.00;;;7.50;99.90;;;;;;5092463;28;20050;-81
2021/12/12 11:08:42;;;;;;;0.00;0.00;;;7.60;99.90;;;;;;5076945;28;20056;-81
2021/12/12 11:11:15;;;;;;;0.00;0.00;;;7.60;99.90;;;;;;5078370;28;20090;-82
2021/12/12 11:14:03;;;;;;;0.10;0.10;;;7.60;99.90;;;;;;5078182;28;20625;-81
2021/12/12 11:16:53;;;;;;;0.05;0.05;;;7.70;99.90;;;;;;5095613;28;20048;-81
2021/12/12 11:19:48;;;;;;;4.47;1.65;;;7.70;99.90;;;;;;5078243;28;20040;-81
2021/12/12 11:22:24;;;;;;;;;;;7.70;99.90;;;;;;5095568;28;20063;-81
2021/12/12 11:25:12;;;;;;;0.05;0.00;;;7.70;99.90;;;;;;5077975;28;19920;-81
2021/12/12 11:27:45;;;;;;;0.00;0.00;;;7.70;99.90;;;;;;5078093;28;20499;-81
2021/12/12 11:30:36;;;;;;;0.00;0.00;;;7.80;99.90;;;;;;5094477;28;20089;-81
2021/12/12 11:33:04;;;;;;;0.00;0.00;;;7.80;99.90;;;;;;5095047;28;20044;-81
2021/12/12 11:35:31;;;;;;;0.00;0.00;;;7.80;99.90;;;;;;5095389;28;20143;-81
2021/12/12 11:38:31;;;;;;;0.00;0.00;;;7.70;99.90;;;;;;5118820;27;20542;-81
2021/12/12 11:41:09;;;;;;;0.00;0.00;;;7.80;99.90;;;;;;5101125;27;20047;-81
2021/12/12 11:43:48;;;;;;;0.03;0.03;;;7.80;99.90;;;;;;5102309;27;20047;-81
2021/12/12 11:46:40;;;;;;;0.00;0.00;;;7.90;99.90;;;;;;5118636;27;20051;-82
2021/12/12 11:49:15;;;;;;;0.00;0.00;;;7.80;99.90;;;;;;5118010;27;20054;-80
2021/12/12 11:51:49;;;;;;;0.00;0.00;;;7.80;99.90;;;;;;5101526;27;20051;-80
2021/12/12 11:54:54;;;;;;;0.08;0.00;;;7.90;99.90;;;;;;5101363;27;20482;-81
2021/12/12 11:57:24;;;;;;;0.00;0.00;;;7.90;99.90;;;;;;5054174;28;20088;-80
2021/12/12 12:00:04;;;;;;;0.30;0.00;;;7.90;99.90;;;;;;5020304;28;20052;-80
2021/12/12 12:02:36;;;;;;;0.00;0.00;;;7.90;99.90;;;;;;5019838;28;20060;-81
2021/12/12 12:05:24;;;;;;;0.00;0.00;;;8.00;99.90;;;;;;5035839;28;20507;-81
2021/12/12 12:08:00;;;;;;;0.00;0.00;;;8.00;99.90;;;;;;5019233;28;20524;-81
2021/12/12 12:11:20;;;;;;;0.00;0.00;;;8.00;99.90;;;;;;5019873;28;20063;-81
2021/12/12 12:14:09;;;;;;;0.00;0.00;;;8.00;99.90;;;;;;5035934;28;20107;-81
2021/12/12 12:16:53;;;;;;;0.10;0.00;;;8.10;99.90;;;;;;5019534;28;20059;-81
2021/12/12 12:19:35;;;;;;;0.00;0.00;;;8.10;99.90;;;;;;5019009;28;20146;-81
2021/12/12 12:22:23;;;;;;;0.03;0.00;;;8.10;99.90;;;;;;5035968;28;20052;-82
2021/12/12 12:25:01;;;;;;;0.10;0.10;;;8.10;99.90;;;;;;5019308;28;20052;-81
2021/12/12 12:27:35;;;;;;;0.10;0.00;;;8.10;99.90;;;;;;5019973;28;20065;-81
2021/12/12 12:30:04;;;;;;;0.20;0.20;;;8.10;99.90;;;;;;4995145;28;20072;-82
2021/12/12 12:33:07;;;;;;;0.10;0.03;;;8.10;99.90;;;;;;5015282;28;20059;-82
2021/12/12 12:36:00;;;;;;;0.57;0.10;;;8.20;99.90;;;;;;5077987;28;20092;-82
2021/12/12 12:39:02;;;;;;;0.75;0.73;;;8.20;99.90;;;;;;5078446;28;20043;-81
2021/12/12 12:41:52;;;;;;;0.25;0.05;;;8.20;99.90;;;;;;5077268;28;20051;-81
2021/12/12 12:44:55;;;;;;;0.35;0.30;;;8.20;99.90;;;;;;5078152;28;20052;-81
2021/12/12 12:47:58;;;;;;;0.00;0.00;;;8.20;99.90;;;;;;5078255;28;20094;-81
2021/12/12 12:50:38;;;;;;;0.20;0.10;;;8.30;99.90;;;;;;5096021;28;20043;-81
2021/12/12 12:53:29;;;;;;;0.00;0.00;;;8.30;99.90;;;;;;5079033;28;20055;-82
2021/12/12 12:56:26;;;;;;;0.10;0.03;;;8.30;99.90;;;;;;5096419;28;20048;-81
2021/12/12 12:58:54;;;;;;;0.10;0.03;;;8.30;99.90;;;;;;5095854;28;20428;-81
2021/12/12 13:01:43;;;;;;;0.43;0.00;;;8.40;99.90;;;;;;5097501;27;20070;-81
2021/12/12 13:04:30;;;;;;;0.10;0.10;;;8.40;99.90;;;;;;5098582;27;20398;-81
2021/12/12 13:07:27;;;;;;;0.00;0.00;;;8.40;99.90;;;;;;5099305;27;20394;-81
2021/12/12 13:10:03;;;;;;;0.22;0.15;;;8.50;99.90;;;;;;5099332;27;20130;-81
2021/12/12 13:12:47;;;;;;;0.00;0.00;;;8.50;99.90;;;;;;5116254;27;20487;-81
2021/12/12 13:15:36;;;;;;;0.10;0.00;;;8.50;99.90;;;;;;5099216;27;20079;-80
2021/12/12 13:18:28;;;;;;;0.00;0.00;;;8.50;99.90;;;;;;5115548;27;20058;-81
2021/12/12 13:21:18;;;;;;;0.00;0.00;;;8.60;99.90;;;;;;5096022;28;20054;-81
2021/12/12 13:24:07;;;;;;;0.20;0.20;;;8.60;99.90;;;;;;5095578;28;20437;-80
2021/12/12 13:27:27;;;;;;;0.25;0.17;;;8.60;99.90;;;;;;5078713;28;20079;-81
2021/12/12 13:30:25;;;;;;;0.40;0.17;;;8.60;99.90;;;;;;5106087;28;20051;-81
2021/12/12 13:33:23;;;;;;;0.65;0.00;;;8.70;99.90;;;;;;5115910;28;20047;-81
2021/12/12 13:36:15;;;;;;;0.00;0.00;;;8.70;99.90;;;;;;5017684;28;20048;-81
2021/12/12 13:39:12;;;;;;;0.10;0.10;;;8.70;99.90;;;;;;5017421;28;20048;-81
2021/12/12 13:41:55;;;;;;;0.00;0.00;;;8.70;99.90;;;;;;5018138;28;20059;-81
2021/12/12 13:44:21;;;;;;;0.00;0.00;;;8.70;99.90;;;;;;5034567;28;20531;-80
2021/12/12 13:47:20;;;;;;;0.20;0.00;;;8.70;99.90;;;;;;5017395;28;20096;-80
2021/12/12 13:50:12;;;;;;;0.10;0.10;;;8.80;99.90;;;;;;5017806;28;20045;-81
2021/12/12 13:53:03;;;;;;;0.38;0.08;;;8.80;99.90;;;;;;5019459;28;20106;-80
2021/12/12 13:55:56;;;;;;;0.10;0.10;;;8.80;99.90;;;;;;5037448;28;20053;-80
2021/12/12 13:58:28;;;;;;;0.32;0.30;;;8.90;99.90;;;;;;5021626;28;20488;-81